createdAt,value
2023-04-16T00:02:11.532Z,24.48
2023-04-16T00:04:41.392Z,26.10
2023-04-16T00:07:11.186Z,20.58
2023-04-16T00:09:40.836Z,22.55
2023-04-16T00:12:10.495Z,22.00
2023-04-16T00:14:40.083Z,23.77
2023-04-16T00:17:09.766Z,18.08
2023-04-16T00:19:39.515Z,18.05
2023-04-16T00:22:09.198Z,20.25
2023-04-16T00:24:38.807Z,17.25
2023-04-16T00:27:08.964Z,18.63
2023-04-16T00:29:38.585Z,19.77
2023-04-16T00:32:11.766Z,19.55
2023-04-16T00:34:41.374Z,17.52
2023-04-16T00:37:11.067Z,18.25
2023-04-16T00:39:40.719Z,18.30
2023-04-16T00:42:10.323Z,15.25
2023-04-16T00:44:39.999Z,20.80
2023-04-16T00:47:09.686Z,19.17
2023-04-16T00:49:39.320Z,18.77
2023-04-16T00:52:09.060Z,14.38
2023-04-16T00:54:38.668Z,17.27
2023-04-16T00:57:09.177Z,17.27
2023-04-16T00:59:38.827Z,18.17
2023-04-16T01:02:08.916Z,18.58
2023-04-16T01:04:38.683Z,16.88
2023-04-16T01:07:08.398Z,18.58
2023-04-16T01:09:38.056Z,18.23
2023-04-16T01:12:07.774Z,21.45
2023-04-16T01:14:37.959Z,17.77
2023-04-16T01:17:07.686Z,18.63
2023-04-16T01:19:40.160Z,19.77
2023-04-16T01:22:09.780Z,18.95
2023-04-16T01:24:39.891Z,19.17
2023-04-16T01:27:09.582Z,16.30
2023-04-16T01:29:39.277Z,18.02
2023-04-16T01:32:09.095Z,18.15
2023-04-16T01:34:39.081Z,15.77
2023-04-16T01:37:08.757Z,19.13
2023-04-16T01:39:38.389Z,19.35
2023-04-16T01:42:08.065Z,16.00
2023-04-16T01:44:37.721Z,20.05
2023-04-16T01:47:07.418Z,21.70
2023-04-16T01:49:38.009Z,17.08
2023-04-16T01:52:09.973Z,22.10
2023-04-16T01:54:39.624Z,17.48
2023-04-16T01:57:09.249Z,18.60
2023-04-16T01:59:39.295Z,20.67
2023-04-16T02:02:16.110Z,16.67
2023-04-16T02:04:47.156Z,18.13
2023-04-16T02:07:17.177Z,17.30
2023-04-16T02:09:47.046Z,16.58
2023-04-16T02:12:16.988Z,15.70
2023-04-16T02:14:46.643Z,20.50
2023-04-16T02:17:17.190Z,19.92
2023-04-16T02:19:46.840Z,14.85
2023-04-16T02:22:16.726Z,18.17
2023-04-16T02:24:46.390Z,15.35
2023-04-16T02:27:16.054Z,19.77
2023-04-16T02:29:45.767Z,19.52
2023-04-16T02:32:15.481Z,16.83
2023-04-16T02:34:45.102Z,14.98
2023-04-16T02:37:16.837Z,16.25
2023-04-16T02:39:46.653Z,20.42
2023-04-16T02:42:17.217Z,21.75
2023-04-16T02:44:46.945Z,19.48
2023-04-16T02:47:16.569Z,17.27
2023-04-16T02:49:46.339Z,14.10
2023-04-16T02:52:15.939Z,17.48
2023-04-16T02:54:45.572Z,16.50
2023-04-16T02:57:15.225Z,16.40
2023-04-16T02:59:44.839Z,21.17
2023-04-16T03:02:15.477Z,16.13
2023-04-16T03:04:48.340Z,18.27
2023-04-16T03:07:19.826Z,17.35
2023-04-16T03:09:49.461Z,17.27
2023-04-16T03:12:19.138Z,14.05
2023-04-16T03:14:48.773Z,18.00
2023-04-16T03:17:18.505Z,17.77
2023-04-16T03:19:48.249Z,15.00
2023-04-16T03:22:17.855Z,16.27
2023-04-16T03:24:47.527Z,17.48
2023-04-16T03:27:17.201Z,18.35
2023-04-16T03:29:46.843Z,19.45
2023-04-16T03:32:16.613Z,19.67
2023-04-16T03:34:46.331Z,15.05
2023-04-16T03:37:15.986Z,16.33
2023-04-16T03:39:45.602Z,18.77
2023-04-16T03:42:16.446Z,17.63
2023-04-16T03:44:46.986Z,18.45
2023-04-16T03:47:16.639Z,15.88
2023-04-16T03:49:46.297Z,22.33
2023-04-16T03:52:15.943Z,20.20
2023-04-16T03:54:45.635Z,16.08
2023-04-16T03:57:15.241Z,16.85
2023-04-16T03:59:44.907Z,20.85
2023-04-16T04:02:14.643Z,19.35
2023-04-16T04:04:44.427Z,20.23
2023-04-16T04:07:14.077Z,18.38
2023-04-16T04:09:43.783Z,16.58
2023-04-16T04:12:13.415Z,18.00
2023-04-16T04:14:43.204Z,16.02
2023-04-16T04:17:12.883Z,17.55
2023-04-16T04:19:50.660Z,16.85
2023-04-16T04:22:24.230Z,15.23
2023-04-16T04:24:53.827Z,15.88
2023-04-16T04:27:23.478Z,18.20
2023-04-16T04:29:53.129Z,16.75
2023-04-16T04:32:22.790Z,14.90
2023-04-16T04:34:52.664Z,20.48
2023-04-16T04:37:22.634Z,17.20
2023-04-16T04:39:52.318Z,20.00
2023-04-16T04:42:22.754Z,16.65
2023-04-16T04:44:52.407Z,17.75
2023-04-16T04:47:22.078Z,17.77
2023-04-16T04:49:51.730Z,20.00
2023-04-16T04:52:22.074Z,17.20
2023-04-16T04:54:51.730Z,14.90
2023-04-16T04:57:21.448Z,19.85
2023-04-16T04:59:52.617Z,19.67
2023-04-16T05:02:22.526Z,19.50
2023-04-16T05:04:52.405Z,19.10
2023-04-16T05:07:23.109Z,20.83
2023-04-16T05:09:53.490Z,17.20
2023-04-16T05:12:23.129Z,18.67
2023-04-16T05:14:55.801Z,21.45
2023-04-16T05:17:25.491Z,19.45
2023-04-16T05:19:55.169Z,18.83
2023-04-16T05:22:24.893Z,19.63
2023-04-16T05:24:54.535Z,21.17
2023-04-16T05:27:24.145Z,18.20
2023-04-16T05:29:53.812Z,17.88
2023-04-16T05:32:26.189Z,18.33
2023-04-16T05:34:55.948Z,15.75
2023-04-16T05:37:25.624Z,20.15
2023-04-16T05:39:55.233Z,17.35
2023-04-16T05:42:24.898Z,18.75
2023-04-16T05:44:54.632Z,18.40
2023-04-16T05:47:24.283Z,18.80
2023-04-16T05:49:54.019Z,17.23
2023-04-16T05:52:23.635Z,17.20
2023-04-16T05:54:54.171Z,16.63
2023-04-16T05:57:24.054Z,16.63
2023-04-16T05:59:53.727Z,15.77
2023-04-16T06:02:23.505Z,17.27
2023-04-16T06:04:53.257Z,18.60
2023-04-16T06:07:23.110Z,19.23
2023-04-16T06:09:52.783Z,22.10
2023-04-16T06:12:22.817Z,16.30
2023-04-16T06:14:52.443Z,19.38
2023-04-16T06:17:22.956Z,19.08
2023-04-16T06:19:52.593Z,15.90
2023-04-16T06:22:22.300Z,16.83
2023-04-16T06:24:52.241Z,15.93
2023-04-16T06:27:21.890Z,20.33
2023-04-16T06:29:52.236Z,18.48
2023-04-16T06:32:22.157Z,18.95
2023-04-16T06:34:51.832Z,19.38
2023-04-16T06:37:21.447Z,16.92
2023-04-16T06:39:51.113Z,19.15
2023-04-16T06:42:20.773Z,16.23
2023-04-16T06:44:50.423Z,15.18
2023-04-16T06:47:20.088Z,15.80
2023-04-16T06:49:49.749Z,16.75
2023-04-16T06:52:19.356Z,13.77
2023-04-16T06:54:49.724Z,17.95
2023-04-16T06:57:19.378Z,16.73
2023-04-16T06:59:48.989Z,16.90
2023-04-16T07:02:18.885Z,13.77
2023-04-16T07:04:48.630Z,14.32
2023-04-16T07:07:18.279Z,17.60
2023-04-16T07:09:47.958Z,13.52
2023-04-16T07:12:17.707Z,17.75
2023-04-16T07:14:47.403Z,13.20
2023-04-16T07:17:17.029Z,17.30
2023-04-16T07:19:47.241Z,14.27
2023-04-16T07:22:17.309Z,17.58
2023-04-16T07:24:46.928Z,14.50
2023-04-16T07:27:16.596Z,16.63
2023-04-16T07:29:47.449Z,15.95
2023-04-16T07:32:17.086Z,16.88
2023-04-16T07:34:46.961Z,15.00
2023-04-16T07:37:16.576Z,15.10
2023-04-16T07:39:46.189Z,16.15
2023-04-16T07:42:16.036Z,12.65
2023-04-16T07:44:46.417Z,13.77
2023-04-16T07:47:16.054Z,15.35
2023-04-16T07:49:45.661Z,12.55
2023-04-16T07:52:15.520Z,13.75
2023-04-16T07:54:45.169Z,11.60
2023-04-16T07:57:14.827Z,16.83
2023-04-16T07:59:45.367Z,11.35
2023-04-16T08:02:16.652Z,14.65
2023-04-16T08:04:46.624Z,16.88
2023-04-16T08:07:16.384Z,13.48
2023-04-16T08:09:55.102Z,15.77
2023-04-16T08:12:24.873Z,14.35
2023-04-16T08:14:54.582Z,14.20
2023-04-16T08:17:24.248Z,17.10
2023-04-16T08:19:53.894Z,12.90
2023-04-16T08:22:25.141Z,16.48
2023-04-16T08:24:54.999Z,12.35
2023-04-16T08:27:24.621Z,14.00
2023-04-16T08:29:54.252Z,12.90
2023-04-16T08:32:23.971Z,17.23
2023-04-16T08:34:53.687Z,14.55
2023-04-16T08:37:23.319Z,9.30
2023-04-16T08:39:52.930Z,14.15
2023-04-16T08:42:38.548Z,15.52
2023-04-16T08:45:18.912Z,12.55
2023-04-16T08:47:50.052Z,10.57
2023-04-16T08:50:28.148Z,12.98
2023-04-16T08:53:08.499Z,13.30
2023-04-16T08:55:50.557Z,14.05
2023-04-16T08:58:24.721Z,11.43
2023-04-16T09:00:54.387Z,12.35
2023-04-16T09:03:24.166Z,12.68
2023-04-16T09:05:53.841Z,12.30
2023-04-16T09:08:23.623Z,12.52
2023-04-16T09:10:53.439Z,14.63
2023-04-16T09:13:23.895Z,10.73
2023-04-16T09:15:58.526Z,12.15
2023-04-16T09:18:29.642Z,14.30
2023-04-16T09:20:59.287Z,14.63
2023-04-16T09:23:28.915Z,12.27
2023-04-16T09:26:00.905Z,13.60
2023-04-16T09:28:50.237Z,11.18
2023-04-16T09:31:21.137Z,16.73
2023-04-16T09:34:07.004Z,10.55
2023-04-16T09:36:37.013Z,11.98
2023-04-16T09:39:06.799Z,14.90
2023-04-16T09:41:41.110Z,13.20
2023-04-16T09:44:10.904Z,12.52
2023-04-16T09:46:43.629Z,10.65
2023-04-16T09:49:19.909Z,10.65
2023-04-16T09:51:54.347Z,10.52
2023-04-16T09:54:23.976Z,11.65
2023-04-16T09:56:53.646Z,11.45
2023-04-16T09:59:23.924Z,12.98
2023-04-16T10:01:57.275Z,14.73
2023-04-16T10:04:55.389Z,11.10
2023-04-16T10:07:25.405Z,11.93
2023-04-16T10:09:55.035Z,11.23
2023-04-16T10:12:24.667Z,10.13
2023-04-16T10:14:54.247Z,10.80
2023-04-16T10:17:25.254Z,10.60
2023-04-16T10:19:54.955Z,10.30
2023-04-16T10:22:24.601Z,11.63
2023-04-16T10:24:54.809Z,11.55
2023-04-16T10:27:24.535Z,11.38
2023-04-16T10:29:54.180Z,10.30
2023-04-16T10:32:23.850Z,10.45
2023-04-16T10:34:53.495Z,9.52
2023-04-16T10:37:30.946Z,13.55
2023-04-16T10:40:06.419Z,10.63
2023-04-16T10:42:36.159Z,11.93
2023-04-16T10:45:05.895Z,11.93
2023-04-16T10:47:35.587Z,9.93
2023-04-16T10:50:06.522Z,13.18
2023-04-16T10:52:36.169Z,12.00
2023-04-16T10:55:05.877Z,9.75
2023-04-16T10:57:35.519Z,12.10
2023-04-16T11:00:05.679Z,10.55
2023-04-16T11:02:35.656Z,11.45
2023-04-16T11:05:05.660Z,14.30
2023-04-16T11:07:36.419Z,15.73
2023-04-16T11:10:06.884Z,11.75
2023-04-16T11:12:49.894Z,16.60
2023-04-16T11:15:23.498Z,12.70
2023-04-16T11:17:54.102Z,12.57
2023-04-16T11:20:28.364Z,14.00
2023-04-16T11:22:59.057Z,9.48
2023-04-16T11:25:33.512Z,14.52
2023-04-16T11:28:05.107Z,13.25
2023-04-16T11:30:36.076Z,14.32
2023-04-16T11:33:12.842Z,14.35
2023-04-16T11:35:42.827Z,16.35
2023-04-16T11:38:12.492Z,18.10
2023-04-16T11:40:42.232Z,13.57
2023-04-16T11:43:18.651Z,13.35
2023-04-16T11:46:24.097Z,12.63
2023-04-16T11:48:59.862Z,14.93
2023-04-16T11:51:29.487Z,15.05
2023-04-16T11:54:00.246Z,12.82
2023-04-16T11:56:34.940Z,13.02
2023-04-16T11:59:15.310Z,15.33
2023-04-16T12:01:49.815Z,14.43
2023-04-16T12:04:23.368Z,13.07
2023-04-16T12:07:17.213Z,12.60
2023-04-16T12:09:46.987Z,14.73
2023-04-16T12:12:32.870Z,14.15
2023-04-16T12:15:05.827Z,16.88
2023-04-16T12:17:36.616Z,15.95
2023-04-16T12:20:13.530Z,17.95
2023-04-16T12:22:54.302Z,16.15
2023-04-16T12:25:23.903Z,15.27
2023-04-16T12:27:54.869Z,14.25
2023-04-16T12:30:25.343Z,15.10
2023-04-16T12:32:58.681Z,16.88
2023-04-16T12:35:33.213Z,14.75
2023-04-16T12:38:03.194Z,15.88
2023-04-16T12:40:33.027Z,18.77
2023-04-16T12:43:02.722Z,17.42
2023-04-16T12:45:32.438Z,16.48
2023-04-16T12:48:02.242Z,19.75
2023-04-16T12:50:31.977Z,15.57
2023-04-16T12:53:01.728Z,17.15
2023-04-16T12:55:31.364Z,21.98
2023-04-16T12:58:01.077Z,18.77
2023-04-16T13:00:30.814Z,19.30
2023-04-16T13:03:00.617Z,15.55
2023-04-16T13:05:30.315Z,19.52
2023-04-16T13:07:59.939Z,20.40
2023-04-16T13:10:29.675Z,15.27
2023-04-16T13:12:59.254Z,15.25
2023-04-16T13:15:28.952Z,15.20
2023-04-16T13:17:58.683Z,14.55
2023-04-16T13:20:28.470Z,19.10
2023-04-16T13:22:58.287Z,17.15
2023-04-16T13:25:27.984Z,15.88
2023-04-16T13:27:57.678Z,14.90
2023-04-16T13:30:27.799Z,18.48
2023-04-16T13:33:00.452Z,19.77
2023-04-16T13:35:30.901Z,15.68
2023-04-16T13:38:00.574Z,18.25
2023-04-16T13:40:30.278Z,18.48
2023-04-16T13:42:59.928Z,18.45
2023-04-16T13:45:29.642Z,15.27
2023-04-16T13:47:59.398Z,17.52
2023-04-16T13:50:29.127Z,17.35
2023-04-16T13:52:58.818Z,21.33
2023-04-16T13:55:28.486Z,21.85
2023-04-16T13:57:58.128Z,17.30
2023-04-16T14:00:29.034Z,13.18
2023-04-16T14:02:58.895Z,16.33
2023-04-16T14:05:28.980Z,19.50
2023-04-16T14:07:58.602Z,20.02
2023-04-16T14:10:28.275Z,18.73
2023-04-16T14:12:57.874Z,20.60
2023-04-16T14:15:29.046Z,19.63
2023-04-16T14:17:58.766Z,19.80
2023-04-16T14:20:28.463Z,18.98
2023-04-16T14:22:58.674Z,18.33
2023-04-16T14:25:28.673Z,25.02
2023-04-16T14:27:58.398Z,18.25
2023-04-16T14:30:28.096Z,16.92
2023-04-16T14:32:57.809Z,18.30
2023-04-16T14:35:28.087Z,21.48
2023-04-16T14:37:58.277Z,19.08
2023-04-16T14:40:28.033Z,23.15
2023-04-16T14:42:57.753Z,22.10
2023-04-16T14:45:30.499Z,19.02
2023-04-16T14:48:00.255Z,20.60
2023-04-16T14:50:29.875Z,21.17
2023-04-16T14:52:59.547Z,18.25
2023-04-16T14:55:29.208Z,25.70
2023-04-16T14:57:58.902Z,21.98
2023-04-16T15:00:28.919Z,17.77
2023-04-16T15:02:59.130Z,23.15
2023-04-16T15:05:28.929Z,23.08
2023-04-16T15:07:58.559Z,14.93
2023-04-16T15:10:28.235Z,19.23
2023-04-16T15:12:57.922Z,22.90
2023-04-16T15:15:27.654Z,22.63
2023-04-16T15:17:58.472Z,22.67
2023-04-16T15:20:28.580Z,24.00
2023-04-16T15:22:58.428Z,21.25
2023-04-16T15:25:28.174Z,24.25
2023-04-16T15:27:57.927Z,20.10
2023-04-16T15:30:27.675Z,18.73
2023-04-16T15:32:57.647Z,20.30
2023-04-16T15:35:27.354Z,20.15
2023-04-16T15:37:57.072Z,29.83
2023-04-16T15:40:27.436Z,23.48
2023-04-16T15:42:58.055Z,24.40
2023-04-16T15:45:27.962Z,24.95
2023-04-16T15:48:00.739Z,22.95
2023-04-16T15:50:30.503Z,23.27
2023-04-16T15:53:00.118Z,18.60
2023-04-16T15:55:29.836Z,19.48
2023-04-16T15:57:59.477Z,23.85
2023-04-16T16:00:29.558Z,19.20
2023-04-16T16:02:59.696Z,22.48
2023-04-16T16:05:29.498Z,25.83
2023-04-16T16:08:00.090Z,19.73
2023-04-16T16:10:29.766Z,21.20
2023-04-16T16:12:59.456Z,20.73
2023-04-16T16:15:29.119Z,25.48
2023-04-16T16:17:59.499Z,27.00
2023-04-16T16:20:29.517Z,23.75
2023-04-16T16:22:59.542Z,24.30
2023-04-16T16:25:29.268Z,21.73
2023-04-16T16:28:00.302Z,27.17
2023-04-16T16:30:29.976Z,23.92
2023-04-16T16:32:59.721Z,18.42
2023-04-16T16:35:29.371Z,23.83
2023-04-16T16:38:00.150Z,23.80
2023-04-16T16:40:30.188Z,23.38
2023-04-16T16:42:59.940Z,21.48
2023-04-16T16:45:30.236Z,24.10
2023-04-16T16:48:05.121Z,22.70
2023-04-16T16:50:35.059Z,19.42
2023-04-16T16:53:04.969Z,23.58
2023-04-16T16:55:34.570Z,27.75
2023-04-16T16:58:04.991Z,26.42
2023-04-16T17:00:34.741Z,17.80
2023-04-16T17:03:04.663Z,25.80
2023-04-16T17:05:34.434Z,20.45
2023-04-16T17:08:04.256Z,27.65
2023-04-16T17:10:33.926Z,21.73
2023-04-16T17:13:03.857Z,19.70
2023-04-16T17:15:33.464Z,24.50
2023-04-16T17:18:03.181Z,18.25
2023-04-16T17:20:34.044Z,18.80
2023-04-16T17:23:03.709Z,24.77
2023-04-16T17:25:33.306Z,22.38
2023-04-16T17:28:03.059Z,20.95
2023-04-16T17:30:33.520Z,18.10
2023-04-16T17:33:05.840Z,21.73
2023-04-16T17:35:35.633Z,21.65
2023-04-16T17:38:05.416Z,24.73
2023-04-16T17:40:35.080Z,20.58
2023-04-16T17:43:04.813Z,22.45
2023-04-16T17:45:35.769Z,21.83
2023-04-16T17:48:05.542Z,21.98
2023-04-16T17:50:36.065Z,22.30
2023-04-16T17:53:07.248Z,24.98
2023-04-16T17:55:37.292Z,20.02
2023-04-16T17:58:07.026Z,22.55
2023-04-16T18:00:36.650Z,20.85
2023-04-16T18:03:06.646Z,24.00
2023-04-16T18:05:36.656Z,24.58
2023-04-16T18:08:06.486Z,16.05
2023-04-16T18:10:36.396Z,23.23
2023-04-16T18:13:06.008Z,15.07
2023-04-16T18:15:39.754Z,14.82
2023-04-16T18:18:09.782Z,11.82
2023-04-16T18:20:39.626Z,17.08
2023-04-16T18:23:09.231Z,16.73
2023-04-16T18:28:09.533Z,15.80
2023-04-16T18:30:40.402Z,15.45
2023-04-16T18:35:42.940Z,16.80
2023-04-16T18:38:12.599Z,15.48
2023-04-16T18:40:43.157Z,14.70
2023-04-16T18:43:12.802Z,15.05
2023-04-16T18:45:43.170Z,19.70
2023-04-16T18:48:12.942Z,14.63
2023-04-16T18:50:42.600Z,16.15
2023-04-16T18:53:12.429Z,16.98
2023-04-16T18:55:42.363Z,17.05
2023-04-16T18:58:12.455Z,13.43
2023-04-16T19:00:42.406Z,13.93
2023-04-16T19:03:12.108Z,18.02
2023-04-16T19:05:41.754Z,14.00
2023-04-16T19:08:11.416Z,14.65
2023-04-16T19:10:41.107Z,17.80
2023-04-16T19:13:10.740Z,15.23
2023-04-16T19:15:40.419Z,11.73
2023-04-16T19:18:10.053Z,13.00
2023-04-16T19:20:39.885Z,17.33
2023-04-16T19:23:10.781Z,15.48
2023-04-16T19:25:40.948Z,17.77
2023-04-16T19:28:10.607Z,14.35
2023-04-16T19:30:41.821Z,16.27
2023-04-16T19:33:11.509Z,18.17
2023-04-16T19:35:41.180Z,13.93
2023-04-16T19:38:11.302Z,13.20
2023-04-16T19:40:41.548Z,14.45
2023-04-16T19:43:11.204Z,14.75
2023-04-16T19:45:47.799Z,15.68
2023-04-16T19:48:17.641Z,14.65
2023-04-16T19:50:47.333Z,15.13
2023-04-16T19:53:18.735Z,14.40
2023-04-16T19:55:48.414Z,15.32
2023-04-16T19:58:18.285Z,16.48
2023-04-16T20:00:48.875Z,15.25
2023-04-16T20:03:18.639Z,17.75
2023-04-16T20:05:51.380Z,12.57
2023-04-16T20:08:21.012Z,20.65
2023-04-16T20:10:50.730Z,13.38
2023-04-16T20:13:20.357Z,15.95
2023-04-16T20:15:53.416Z,15.25
2023-04-16T20:18:23.750Z,16.10
2023-04-16T20:20:53.350Z,16.67
2023-04-16T20:23:23.161Z,15.90
2023-04-16T20:25:53.903Z,16.05
2023-04-16T20:28:23.470Z,16.63
2023-04-16T20:30:53.329Z,13.43
2023-04-16T20:33:23.033Z,14.73
2023-04-16T20:35:53.788Z,16.92
2023-04-16T20:38:25.198Z,15.55
2023-04-16T20:41:07.692Z,14.55
2023-04-16T20:43:39.806Z,13.52
2023-04-16T20:46:10.225Z,16.15
2023-04-16T20:48:42.808Z,15.90
2023-04-16T20:51:12.467Z,15.52
2023-04-16T20:53:42.276Z,14.57
2023-04-16T20:56:16.153Z,13.48
2023-04-16T20:58:45.843Z,12.85
2023-04-16T21:01:15.591Z,17.85
2023-04-16T21:03:45.551Z,17.35
2023-04-16T21:06:19.177Z,13.70
2023-04-16T21:08:48.792Z,16.15
2023-04-16T21:11:18.451Z,12.93
2023-04-16T21:13:48.371Z,18.88
2023-04-16T21:16:18.157Z,13.93
2023-04-16T21:18:47.886Z,15.02
2023-04-16T21:21:17.699Z,15.30
2023-04-16T21:23:47.458Z,16.10
2023-04-16T21:26:17.193Z,15.63
2023-04-16T21:28:46.992Z,17.55
2023-04-16T21:31:16.706Z,14.15
2023-04-16T21:33:46.410Z,13.82
2023-04-16T21:36:16.069Z,16.55
2023-04-16T21:38:45.753Z,11.88
2023-04-16T21:41:15.390Z,13.32
2023-04-16T21:43:45.053Z,13.82
2023-04-16T21:46:14.798Z,14.07
2023-04-16T21:48:44.497Z,18.52
2023-04-16T21:51:15.604Z,16.10
2023-04-16T21:53:45.272Z,16.48
2023-04-16T21:56:14.984Z,18.00
2023-04-16T21:58:44.607Z,15.90
2023-04-16T22:01:14.283Z,14.68
2023-04-16T22:03:44.223Z,13.00
2023-04-16T22:06:14.815Z,18.35
2023-04-16T22:08:44.526Z,15.25
2023-04-16T22:11:14.188Z,19.50
2023-04-16T22:13:43.946Z,14.30
2023-04-16T22:16:13.885Z,15.95
2023-04-16T22:18:44.344Z,15.23
2023-04-16T22:21:14.055Z,15.70
2023-04-16T22:23:43.746Z,18.40
2023-04-16T22:26:14.392Z,17.45
2023-04-16T22:28:44.062Z,18.15
2023-04-16T22:31:13.724Z,15.32
2023-04-16T22:33:43.350Z,13.88
2023-04-16T22:36:13.029Z,18.38
2023-04-16T22:38:43.005Z,21.23
2023-04-16T22:41:12.675Z,16.52
2023-04-16T22:43:42.882Z,17.10
2023-04-16T22:46:12.897Z,17.02
2023-04-16T22:48:42.600Z,17.20
2023-04-16T22:51:12.446Z,14.07
2023-04-16T22:53:43.961Z,10.30
2023-04-16T22:56:13.989Z,16.80
2023-04-16T22:58:44.489Z,11.70
2023-04-16T23:01:14.509Z,13.55
2023-04-16T23:03:44.438Z,13.57
2023-04-16T23:06:14.197Z,11.07
2023-04-16T23:08:43.947Z,12.77
2023-04-16T23:11:13.592Z,11.13
2023-04-16T23:13:44.345Z,14.93
2023-04-16T23:16:14.161Z,10.70
2023-04-16T23:18:44.013Z,12.93
2023-04-16T23:21:13.709Z,10.23
2023-04-16T23:23:43.487Z,14.68
2023-04-16T23:26:13.173Z,11.32
2023-04-16T23:28:42.855Z,12.77
2023-04-16T23:31:12.635Z,12.13
2023-04-16T23:33:42.252Z,10.65
2023-04-16T23:36:12.221Z,11.45
2023-04-16T23:38:41.920Z,11.52
2023-04-16T23:41:11.530Z,10.50
2023-04-16T23:43:42.286Z,11.98
2023-04-16T23:46:11.970Z,10.38
2023-04-16T23:48:41.683Z,12.60
2023-04-16T23:51:11.358Z,10.73
2023-04-16T23:53:42.296Z,10.25
2023-04-16T23:56:14.864Z,10.25
2023-04-16T23:58:44.522Z,13.48
